Time;durP1;ratioP1;P1;durP2;ratioP2;P2;SDS_P1;SDS_P2;PMS_P1;PMS_P2;Temp;Humidity;BMP_temperature;BMP_pressure;BME280_temperature;BME280_humidity;BME280_pressure;Samples;Min_cycle;Max_cycle;Signal;HPM_P1;HPM_P2
2021/04/14 00:00:15;;;;;;;8.80;4.88;;;4.00;99.90;;;;;;5011512;28;20564;-65
2021/04/14 00:02:42;;;;;;;6.63;4.30;;;3.80;99.90;;;;;;5014823;28;20049;-66
2021/04/14 00:05:08;;;;;;;11.57;5.00;;;3.80;99.90;;;;;;5011510;28;20664;-66
2021/04/14 00:07:34;;;;;;;10.25;4.53;;;3.70;99.90;;;;;;5008927;28;20025;-66
2021/04/14 00:09:59;;;;;;;7.63;4.40;;;3.80;99.90;;;;;;5006691;28;20041;-67
2021/04/14 00:12:25;;;;;;;8.82;4.85;;;3.70;99.90;;;;;;5007358;28;20022;-67
2021/04/14 00:14:51;;;;;;;8.48;4.78;;;3.70;99.90;;;;;;5015114;28;20014;-65
2021/04/14 00:17:16;;;;;;;6.90;4.15;;;3.70;99.90;;;;;;5021974;28;20026;-65
2021/04/14 00:19:42;;;;;;;7.53;4.53;;;3.70;99.90;;;;;;5028174;28;20072;-65
2021/04/14 00:22:08;;;;;;;7.30;3.92;;;3.70;99.90;;;;;;5002505;28;20048;-67
2021/04/14 00:24:36;;;;;;;9.60;4.70;;;3.70;99.90;;;;;;5008927;28;20025;-67
2021/04/14 00:27:02;;;;;;;9.48;4.47;;;3.70;99.90;;;;;;5009537;28;20030;-66
2021/04/14 00:29:27;;;;;;;6.88;4.60;;;3.70;99.90;;;;;;5012699;28;20420;-67
2021/04/14 00:31:53;;;;;;;7.13;4.22;;;3.70;99.90;;;;;;5007153;28;20432;-66
2021/04/14 00:34:21;;;;;;;7.03;4.55;;;3.80;99.90;;;;;;4995548;28;20157;-67
2021/04/14 00:36:48;;;;;;;9.30;4.47;;;3.90;99.90;;;;;;4987964;28;20113;-66
2021/04/14 00:39:21;;;;;;;7.65;5.07;;;3.90;99.90;;;;;;5013186;28;20029;-66
2021/04/14 00:41:49;;;;;;;7.50;4.75;;;3.90;99.90;;;;;;4998692;28;20145;-65
2021/04/14 00:44:16;;;;;;;7.53;5.30;;;4.00;99.90;;;;;;5007215;28;20022;-66
2021/04/14 00:46:41;;;;;;;7.97;3.90;;;4.00;99.90;;;;;;5017170;28;20106;-67
2021/04/14 00:49:07;;;;;;;12.50;5.03;;;4.10;99.90;;;;;;5022364;28;20072;-66
2021/04/14 00:51:34;;;;;;;7.68;4.32;;;4.10;99.90;;;;;;5019228;28;20036;-67
2021/04/14 00:54:00;;;;;;;9.43;4.82;;;4.20;99.90;;;;;;5006861;28;20030;-66
2021/04/14 00:56:26;;;;;;;6.88;5.00;;;4.20;99.90;;;;;;5009579;28;20496;-65
2021/04/14 00:58:52;;;;;;;9.82;4.57;;;4.10;99.90;;;;;;5014783;28;20014;-67
2021/04/14 01:01:17;;;;;;;9.75;4.65;;;4.10;99.90;;;;;;5005774;28;20558;-67
2021/04/14 01:03:43;;;;;;;8.57;4.43;;;4.10;99.90;;;;;;5006770;28;20024;-67
2021/04/14 01:06:15;;;;;;;8.10;4.70;;;4.10;99.90;;;;;;5005617;28;20018;-68
2021/04/14 01:08:41;;;;;;;6.72;4.60;;;4.00;99.90;;;;;;5019161;28;20021;-67
2021/04/14 01:11:08;;;;;;;9.20;5.47;;;4.00;99.90;;;;;;5009033;28;20683;-67
2021/04/14 01:13:34;;;;;;;9.55;5.93;;;4.00;99.90;;;;;;5003948;28;20026;-66
2021/04/14 01:16:01;;;;;;;8.15;5.10;;;4.00;99.90;;;;;;5003032;28;20373;-66
2021/04/14 01:18:31;;;;;;;6.70;4.72;;;4.00;99.90;;;;;;5006746;28;20033;-66
2021/04/14 01:20:57;;;;;;;9.45;4.95;;;4.10;99.90;;;;;;5006833;28;20022;-66
2021/04/14 01:23:26;;;;;;;9.68;5.15;;;4.20;99.90;;;;;;5008366;28;20021;-67
2021/04/14 01:25:53;;;;;;;8.25;4.85;;;4.10;99.90;;;;;;5006382;28;20427;-65
2021/04/14 01:28:36;;;;;;;8.77;5.20;;;4.00;99.90;;;;;;5020146;28;20115;-69
2021/04/14 01:31:08;;;;;;;8.45;5.20;;;4.00;99.90;;;;;;5006043;28;20050;-66
2021/04/14 01:33:34;;;;;;;7.43;4.78;;;4.10;99.90;;;;;;5004074;28;20122;-65
2021/04/14 01:36:02;;;;;;;9.00;5.15;;;4.10;99.90;;;;;;5002704;28;20403;-66
2021/04/14 01:38:28;;;;;;;7.88;5.70;;;4.00;99.90;;;;;;5006593;28;20117;-66
2021/04/14 01:40:53;;;;;;;10.52;5.55;;;3.90;99.90;;;;;;5007017;28;20101;-67
2021/04/14 01:43:19;;;;;;;9.68;5.45;;;3.90;99.90;;;;;;5009811;28;20361;-66
2021/04/14 01:45:47;;;;;;;14.98;5.95;;;3.90;99.90;;;;;;5007920;28;20081;-67
2021/04/14 01:48:13;;;;;;;9.65;5.95;;;4.00;99.90;;;;;;5017930;28;20057;-65
2021/04/14 01:50:40;;;;;;;11.90;6.03;;;4.00;99.90;;;;;;5010856;28;20033;-67
2021/04/14 01:53:11;;;;;;;12.75;5.28;;;4.00;99.90;;;;;;5020329;28;20446;-66
2021/04/14 01:55:38;;;;;;;14.10;6.47;;;3.90;99.90;;;;;;5010305;28;20030;-69
2021/04/14 01:58:05;;;;;;;16.02;6.97;;;3.90;99.90;;;;;;5007176;28;20034;-66
2021/04/14 02:00:34;;;;;;;12.40;6.47;;;4.00;99.90;;;;;;4996928;28;20010;-68
2021/04/14 02:03:00;;;;;;;8.40;5.70;;;4.00;99.90;;;;;;5009369;28;20057;-68
2021/04/14 02:05:29;;;;;;;12.90;6.40;;;4.00;99.90;;;;;;5007450;28;20025;-67
2021/04/14 02:07:55;;;;;;;11.25;6.60;;;4.20;99.90;;;;;;5008511;28;20050;-66
2021/04/14 02:10:23;;;;;;;12.50;6.57;;;4.30;99.90;;;;;;5005094;28;20034;-66
2021/04/14 02:12:49;;;;;;;13.88;6.35;;;4.20;99.90;;;;;;4998760;28;20435;-66
2021/04/14 02:15:26;;;;;;;9.18;6.32;;;4.30;99.90;;;;;;5010994;28;20079;-67
2021/04/14 02:17:53;;;;;;;11.40;6.88;;;4.40;99.90;;;;;;5003536;28;20429;-67
2021/04/14 02:20:19;;;;;;;9.40;5.82;;;4.40;99.90;;;;;;5017415;28;20383;-67
2021/04/14 02:22:44;;;;;;;9.73;6.32;;;4.40;99.90;;;;;;5008683;28;20018;-68
2021/04/14 02:25:12;;;;;;;13.48;6.57;;;4.30;99.90;;;;;;5010171;28;20038;-67
2021/04/14 02:27:38;;;;;;;9.73;5.63;;;4.20;99.90;;;;;;5022439;28;20044;-68
2021/04/14 02:30:06;;;;;;;12.63;7.97;;;4.20;99.90;;;;;;5010037;28;20034;-66
2021/04/14 02:32:32;;;;;;;12.02;7.53;;;4.20;99.90;;;;;;5009322;28;20029;-67
2021/04/14 02:34:58;;;;;;;13.80;6.70;;;4.20;99.90;;;;;;5009599;28;20032;-67
2021/04/14 02:37:23;;;;;;;15.82;7.05;;;4.20;99.90;;;;;;5017292;28;20049;-67
2021/04/14 02:39:49;;;;;;;12.57;6.50;;;4.30;99.90;;;;;;5008008;28;20494;-67
2021/04/14 02:42:14;;;;;;;11.00;6.82;;;4.20;99.90;;;;;;5009756;28;20469;-66
2021/04/14 02:44:40;;;;;;;16.60;7.18;;;4.10;99.90;;;;;;4996101;28;20488;-66
2021/04/14 02:47:06;;;;;;;9.02;6.10;;;4.00;99.90;;;;;;5023131;28;20475;-69
2021/04/14 02:49:32;;;;;;;10.73;6.65;;;4.00;99.90;;;;;;5007412;28;20056;-68
2021/04/14 02:51:58;;;;;;;14.35;6.95;;;3.90;99.90;;;;;;5008142;28;20499;-67
2021/04/14 02:54:24;;;;;;;9.43;6.45;;;3.90;99.90;;;;;;5001713;28;20049;-67
2021/04/14 02:56:49;;;;;;;11.52;6.57;;;3.80;99.90;;;;;;4996283;28;20460;-70
2021/04/14 02:59:15;;;;;;;15.88;7.22;;;3.80;99.90;;;;;;5008880;28;20044;-65
2021/04/14 03:01:40;;;;;;;13.77;7.15;;;3.80;99.90;;;;;;5007783;28;20121;-67
2021/04/14 03:04:06;;;;;;;11.27;6.53;;;3.70;99.90;;;;;;5010051;28;20057;-67
2021/04/14 03:06:33;;;;;;;14.77;7.28;;;3.40;99.90;;;;;;5013513;28;20032;-67
2021/04/14 03:08:59;;;;;;;12.18;6.45;;;3.40;99.90;;;;;;5011909;28;20013;-66
2021/04/14 03:11:24;;;;;;;11.10;7.07;;;3.40;99.90;;;;;;5020677;28;20511;-66
2021/04/14 03:13:50;;;;;;;11.63;7.38;;;3.40;99.90;;;;;;5007975;28;20026;-67
2021/04/14 03:16:16;;;;;;;10.18;6.53;;;3.40;99.90;;;;;;5007210;28;20041;-67
2021/04/14 03:18:42;;;;;;;13.32;7.20;;;3.30;99.90;;;;;;5008748;28;20026;-67
2021/04/14 03:21:07;;;;;;;19.17;8.00;;;3.30;99.90;;;;;;5008442;28;20026;-67
2021/04/14 03:23:33;;;;;;;9.77;7.22;;;3.20;99.90;;;;;;5007961;28;20022;-68
2021/04/14 03:25:59;;;;;;;15.55;7.22;;;3.10;99.90;;;;;;5006487;28;20018;-67
2021/04/14 03:28:25;;;;;;;9.65;6.43;;;3.10;99.90;;;;;;5009640;28;20644;-67
2021/04/14 03:30:51;;;;;;;13.45;7.97;;;3.10;99.90;;;;;;5007673;28;20084;-67
2021/04/14 03:33:16;;;;;;;11.52;8.05;;;3.10;99.90;;;;;;5009314;28;20029;-67
2021/04/14 03:35:42;;;;;;;15.27;7.13;;;3.00;99.90;;;;;;5008855;28;20037;-66
2021/04/14 03:38:08;;;;;;;13.27;7.45;;;3.00;99.90;;;;;;5012437;28;20096;-66
2021/04/14 03:40:34;;;;;;;12.13;7.28;;;3.10;99.90;;;;;;5008675;28;20048;-67
2021/04/14 03:43:00;;;;;;;18.48;7.50;;;3.20;99.90;;;;;;5011716;28;20624;-65
2021/04/14 03:45:35;;;;;;;15.45;7.22;;;3.20;99.90;;;;;;5003477;28;20029;-66
2021/04/14 03:48:00;;;;;;;12.52;7.22;;;3.20;99.90;;;;;;5008214;28;20023;-67
2021/04/14 03:50:27;;;;;;;13.35;6.80;;;3.30;99.90;;;;;;5010945;28;20095;-66
2021/04/14 03:52:53;;;;;;;10.50;7.30;;;3.30;99.90;;;;;;5021975;28;20562;-67
2021/04/14 03:55:21;;;;;;;13.18;7.28;;;3.30;99.90;;;;;;5009277;28;20721;-66
2021/04/14 03:57:47;;;;;;;11.45;7.03;;;3.30;99.90;;;;;;5010791;28;20026;-67
2021/04/14 04:00:14;;;;;;;13.32;7.22;;;3.30;99.90;;;;;;5017605;28;20072;-67
2021/04/14 04:02:40;;;;;;;11.98;7.38;;;3.20;99.90;;;;;;5008983;28;20099;-66
2021/04/14 04:05:08;;;;;;;12.45;7.50;;;3.20;99.90;;;;;;5005817;28;20029;-67
2021/04/14 04:07:33;;;;;;;11.10;6.68;;;3.40;99.90;;;;;;5007494;28;20598;-65
2021/04/14 04:09:59;;;;;;;14.70;7.25;;;3.40;99.90;;;;;;5022294;28;20116;-67
2021/04/14 04:12:25;;;;;;;10.25;6.35;;;3.40;99.90;;;;;;5005917;28;20109;-68
2021/04/14 04:14:51;;;;;;;16.42;7.13;;;3.40;99.90;;;;;;5008691;28;20120;-67
2021/04/14 04:17:19;;;;;;;12.40;6.88;;;3.40;99.90;;;;;;5005674;28;20480;-65
2021/04/14 04:19:45;;;;;;;13.18;7.43;;;3.40;99.90;;;;;;5010444;28;20037;-66
2021/04/14 04:22:14;;;;;;;16.17;7.47;;;3.40;99.90;;;;;;5007146;28;20556;-68
2021/04/14 04:24:39;;;;;;;10.80;7.03;;;3.40;99.90;;;;;;5004073;28;20022;-67
2021/04/14 04:27:06;;;;;;;13.18;6.85;;;3.40;99.90;;;;;;5008752;28;20109;-65
2021/04/14 04:29:31;;;;;;;10.82;7.47;;;3.50;99.90;;;;;;5005948;28;20630;-67
2021/04/14 04:31:57;;;;;;;13.93;7.93;;;3.50;99.90;;;;;;5007157;28;20109;-66
2021/04/14 04:34:22;;;;;;;11.63;7.60;;;3.50;99.90;;;;;;5005943;28;20443;-67
2021/04/14 04:36:50;;;;;;;15.63;7.28;;;3.50;99.90;;;;;;4993117;28;20030;-67
2021/04/14 04:39:16;;;;;;;14.63;7.22;;;3.40;99.90;;;;;;5006819;28;20042;-66
2021/04/14 04:41:42;;;;;;;12.25;7.22;;;3.40;99.90;;;;;;5002660;28;20400;-67
2021/04/14 04:44:08;;;;;;;13.23;7.07;;;3.40;99.90;;;;;;5002725;28;20019;-67
2021/04/14 04:46:34;;;;;;;12.27;7.65;;;3.30;99.90;;;;;;5015323;28;20044;-66
2021/04/14 04:48:59;;;;;;;15.82;7.95;;;3.20;99.90;;;;;;5004171;28;20018;-66
2021/04/14 04:51:25;;;;;;;14.95;7.85;;;3.20;99.90;;;;;;5010571;28;20435;-67
2021/04/14 04:53:50;;;;;;;13.13;8.00;;;3.10;99.90;;;;;;5015037;28;20070;-65
2021/04/14 04:56:17;;;;;;;20.95;9.23;;;3.20;99.90;;;;;;5005896;28;20168;-66
2021/04/14 04:58:43;;;;;;;13.02;8.20;;;3.10;99.90;;;;;;5003734;28;20017;-67
2021/04/14 05:01:09;;;;;;;17.58;8.82;;;3.10;99.90;;;;;;5000358;28;20033;-66
2021/04/14 05:03:35;;;;;;;18.40;8.02;;;3.10;99.90;;;;;;4992802;28;20059;-65
2021/04/14 05:06:01;;;;;;;14.05;8.07;;;3.10;99.90;;;;;;4993865;28;20053;-66
2021/04/14 05:08:27;;;;;;;13.95;7.65;;;3.10;99.90;;;;;;5017208;28;20018;-66
2021/04/14 05:10:54;;;;;;;12.77;8.02;;;3.10;99.90;;;;;;4995229;28;20123;-68
2021/04/14 05:13:20;;;;;;;14.43;8.75;;;3.00;99.90;;;;;;4999100;28;20648;-67
2021/04/14 05:15:46;;;;;;;13.27;8.23;;;3.00;99.90;;;;;;4991576;28;20053;-68
2021/04/14 05:18:11;;;;;;;16.35;8.70;;;3.00;99.90;;;;;;4998095;28;20333;-68
2021/04/14 05:20:39;;;;;;;13.07;7.95;;;3.00;99.90;;;;;;5001397;28;20025;-66
2021/04/14 05:23:06;;;;;;;13.23;7.40;;;3.20;99.90;;;;;;4996137;28;20030;-66
2021/04/14 05:25:33;;;;;;;11.73;7.60;;;3.20;99.90;;;;;;4998099;28;20086;-67
2021/04/14 05:28:10;;;;;;;11.82;8.27;;;3.30;99.90;;;;;;5002748;28;20026;-66
2021/04/14 05:30:36;;;;;;;14.55;8.20;;;3.30;99.90;;;;;;5000991;28;20038;-66
2021/04/14 05:33:03;;;;;;;16.90;8.15;;;3.30;99.90;;;;;;4997145;28;20053;-65
2021/04/14 05:35:28;;;;;;;14.85;8.25;;;3.30;99.90;;;;;;5013022;23;20454;-72
2021/04/14 05:37:54;;;;;;;13.27;8.25;;;3.30;99.90;;;;;;4980889;22;20535;-64
2021/04/14 05:40:22;;;;;;;13.02;7.88;;;3.30;99.90;;;;;;4966857;28;20030;-64
2021/04/14 05:42:48;;;;;;;13.90;7.72;;;3.40;99.90;;;;;;4968498;28;20031;-63
2021/04/14 05:45:21;;;;;;;16.00;8.68;;;3.40;99.90;;;;;;4956511;28;20507;-65
2021/04/14 05:47:47;;;;;;;13.85;8.13;;;3.50;99.90;;;;;;4963997;28;20019;-64
2021/04/14 05:50:18;;;;;;;15.77;9.43;;;3.60;99.90;;;;;;4939488;28;20065;-64
2021/04/14 05:52:44;;;;;;;13.00;7.80;;;3.70;99.90;;;;;;4963422;28;20038;-65
2021/04/14 05:55:10;;;;;;;17.75;8.55;;;3.80;99.90;;;;;;4964287;28;20035;-66
2021/04/14 05:57:36;;;;;;;12.80;8.00;;;3.90;99.90;;;;;;4963526;28;20456;-65
2021/04/14 06:00:03;;;;;;;15.40;7.97;;;4.00;99.90;;;;;;4972655;28;20020;-66
2021/04/14 06:02:29;;;;;;;16.33;8.40;;;4.00;99.90;;;;;;4972287;28;20083;-65
2021/04/14 06:04:54;;;;;;;14.18;8.13;;;4.10;99.90;;;;;;4964929;28;20101;-63
2021/04/14 06:07:20;;;;;;;13.98;8.07;;;4.20;99.90;;;;;;4965581;28;20065;-65
2021/04/14 06:09:47;;;;;;;17.15;9.05;;;4.30;99.90;;;;;;4964620;28;20031;-65
2021/04/14 06:12:13;;;;;;;14.95;8.80;;;4.40;99.90;;;;;;4967686;28;20027;-63
2021/04/14 06:14:39;;;;;;;14.27;7.93;;;4.60;99.90;;;;;;4965929;28;20084;-66
2021/04/14 06:17:04;;;;;;;15.15;11.18;;;4.70;99.90;;;;;;4965483;28;20031;-64
2021/04/14 06:19:30;;;;;;;16.70;8.43;;;4.80;99.90;;;;;;4967472;28;20112;-69
2021/04/14 06:21:56;;;;;;;12.48;8.32;;;4.90;99.90;;;;;;4966852;28;20076;-64
2021/04/14 06:24:24;;;;;;;14.23;9.23;;;5.00;99.90;;;;;;4968456;28;20038;-64
2021/04/14 06:26:53;;;;;;;11.73;8.40;;;5.10;99.90;;;;;;4969921;28;20015;-64
2021/04/14 06:29:19;;;;;;;17.83;8.60;;;5.30;99.90;;;;;;4975082;28;20056;-64
2021/04/14 06:31:46;;;;;;;14.35;8.27;;;5.40;99.90;;;;;;4982341;28;20030;-65
2021/04/14 06:34:25;;;;;;;13.45;9.13;;;5.50;99.90;;;;;;4957823;28;20033;-65
2021/04/14 06:36:55;;;;;;;15.95;8.55;;;5.50;99.90;;;;;;4958166;28;20031;-63
2021/04/14 06:39:22;;;;;;;16.00;6.80;;;5.20;99.90;;;;;;4960090;28;20138;-63
2021/04/14 06:42:19;;;;;;;15.32;6.78;;;5.10;99.90;;;;;;4969652;28;20019;-65
2021/04/14 06:44:58;;;;;;;14.93;7.03;;;4.90;99.90;;;;;;4961175;28;20495;-65
2021/04/14 06:47:51;;;;;;;14.13;6.40;;;4.80;99.90;;;;;;4960193;28;20096;-65
2021/04/14 06:50:32;;;;;;;12.25;6.93;;;4.90;99.90;;;;;;4940024;28;20039;-64
2021/04/14 06:53:16;;;;;;;19.38;6.90;;;4.90;99.90;;;;;;4970975;28;20077;-66
2021/04/14 06:55:46;;;;;;;14.15;7.05;;;5.00;99.90;;;;;;4969538;28;20018;-64
2021/04/14 06:58:18;;;;;;;27.35;7.45;;;5.10;99.90;;;;;;4963273;28;20026;-64
2021/04/14 07:00:55;;;;;;;17.15;6.43;;;5.20;99.90;;;;;;4974929;28;20023;-65
2021/04/14 07:03:32;;;;;;;15.05;7.15;;;5.40;99.90;;;;;;4946072;28;20211;-64
2021/04/14 07:06:02;;;;;;;14.40;7.85;;;5.40;99.90;;;;;;4969250;28;20030;-62
2021/04/14 07:08:32;;;;;;;14.90;6.45;;;5.40;99.90;;;;;;4952907;28;20027;-66
2021/04/14 07:11:00;;;;;;;14.35;6.93;;;5.40;99.90;;;;;;4969883;28;20126;-65
2021/04/14 07:13:28;;;;;;;13.93;7.68;;;5.50;99.90;;;;;;4964681;28;20098;-65
2021/04/14 07:16:02;;;;;;;16.27;9.43;;;5.40;99.90;;;;;;4976750;28;20023;-64
2021/04/14 07:18:42;;;;;;;23.33;8.55;;;5.40;99.90;;;;;;4981343;28;20019;-63
2021/04/14 07:21:28;;;;;;;14.60;8.18;;;5.40;99.90;;;;;;4984645;28;20027;-64
2021/04/14 07:24:12;;;;;;;15.70;8.27;;;5.50;99.90;;;;;;4974178;28;20078;-65
2021/04/14 07:27:01;;;;;;;15.55;8.60;;;5.60;99.90;;;;;;4969733;28;20053;-65
2021/04/14 07:29:29;;;;;;;19.40;8.95;;;5.80;99.90;;;;;;4977184;28;20039;-64
2021/04/14 07:32:08;;;;;;;19.77;9.45;;;5.90;99.90;;;;;;4968679;28;20030;-65
2021/04/14 07:34:45;;;;;;;16.40;8.77;;;6.00;99.90;;;;;;4968162;28;20210;-65
2021/04/14 07:37:53;;;;;;;17.95;8.15;;;6.20;99.90;;;;;;4950292;28;20043;-65
2021/04/14 07:40:27;;;;;;;14.95;7.70;;;6.50;99.90;;;;;;4970933;28;20042;-64
2021/04/14 07:43:05;;;;;;;14.38;7.78;;;6.60;99.90;;;;;;4958490;28;20026;-64
2021/04/14 07:45:37;;;;;;;15.27;7.63;;;6.70;99.90;;;;;;4980205;28;20078;-64
2021/04/14 07:48:16;;;;;;;12.88;7.05;;;6.80;99.90;;;;;;4967729;28;20035;-65
2021/04/14 07:50:45;;;;;;;15.45;7.32;;;6.90;99.90;;;;;;4970938;28;20065;-68
2021/04/14 07:53:33;;;;;;;13.60;5.65;;;6.80;99.90;;;;;;4974645;28;20023;-64
2021/04/14 07:56:19;;;;;;;14.50;5.43;;;6.70;99.90;;;;;;4981020;28;20053;-63
2021/04/14 07:58:45;;;;;;;11.05;5.10;;;6.70;99.90;;;;;;4981913;28;20029;-64
2021/04/14 08:01:19;;;;;;;10.85;5.40;;;6.80;99.90;;;;;;4973797;28;20049;-64
2021/04/14 08:03:45;;;;;;;11.40;5.47;;;6.80;99.90;;;;;;4969806;28;20054;-62
2021/04/14 08:06:18;;;;;;;9.00;5.53;;;6.80;99.90;;;;;;4968407;28;20058;-66
2021/04/14 08:08:48;;;;;;;13.30;6.85;;;6.60;99.90;;;;;;4967971;28;20488;-65
2021/04/14 08:11:29;;;;;;;12.13;6.35;;;6.50;99.90;;;;;;4968048;28;20354;-63
2021/04/14 08:14:06;;;;;;;12.23;6.82;;;6.40;99.90;;;;;;4952151;28;21472;-65
2021/04/14 08:16:36;;;;;;;12.35;7.47;;;6.50;99.90;;;;;;4968367;28;21071;-65
2021/04/14 08:19:06;;;;;;;14.48;6.65;;;6.70;99.90;;;;;;4957761;28;20016;-64
2021/04/14 08:22:05;;;;;;;18.85;6.75;;;6.90;99.90;;;;;;4945629;28;20034;-65
2021/04/14 08:24:47;;;;;;;11.23;6.25;;;7.00;99.90;;;;;;4969370;28;20030;-65
2021/04/14 08:27:46;;;;;;;13.45;6.60;;;7.10;99.90;;;;;;4971682;28;20026;-66
2021/04/14 08:30:16;;;;;;;12.18;5.72;;;6.70;99.90;;;;;;4925550;28;20087;-64
2021/04/14 08:32:54;;;;;;;15.27;7.95;;;7.00;99.90;;;;;;4945927;28;20026;-63
2021/04/14 08:35:38;;;;;;;15.50;7.25;;;7.50;99.90;;;;;;4970866;28;20029;-63
2021/04/14 08:38:14;;;;;;;14.50;7.22;;;7.70;99.90;;;;;;4936049;28;20035;-63
2021/04/14 08:40:52;;;;;;;15.43;6.85;;;7.30;99.90;;;;;;4956895;28;20018;-65
2021/04/14 08:43:39;;;;;;;14.70;5.90;;;7.40;99.90;;;;;;4958207;28;20015;-64
2021/04/14 08:46:14;;;;;;;12.95;7.07;;;7.30;99.90;;;;;;4961056;28;20035;-67
2021/04/14 08:48:43;;;;;;;13.05;6.60;;;7.30;99.90;;;;;;4962473;28;20019;-63
2021/04/14 08:51:12;;;;;;;11.80;7.10;;;7.80;99.90;;;;;;4948971;28;20087;-64
2021/04/14 08:53:41;;;;;;;15.38;6.55;;;8.00;99.90;;;;;;4966778;28;20023;-64
2021/04/14 08:56:07;;;;;;;17.10;7.50;;;8.60;99.90;;;;;;4949271;28;20056;-64
2021/04/14 08:58:34;;;;;;;13.63;6.68;;;8.90;99.90;;;;;;4967008;28;20064;-63
2021/04/14 09:01:00;;;;;;;11.40;6.32;;;8.90;99.30;;;;;;4966590;28;20214;-66
2021/04/14 09:03:34;;;;;;;14.55;7.63;;;8.50;99.90;;;;;;4967759;28;20468;-66
2021/04/14 09:06:00;;;;;;;15.93;7.38;;;8.20;99.90;;;;;;4956505;28;20025;-64
2021/04/14 09:08:30;;;;;;;12.63;7.05;;;8.50;99.90;;;;;;4961238;28;20031;-65
2021/04/14 09:11:01;;;;;;;14.52;8.90;;;9.10;99.90;;;;;;4953258;28;20476;-64
2021/04/14 09:14:00;;;;;;;15.00;7.95;;;9.10;99.90;;;;;;4944012;28;20503;-64
2021/04/14 09:16:32;;;;;;;15.38;8.90;;;9.20;99.90;;;;;;4956558;28;20042;-67
2021/04/14 09:19:06;;;;;;;;;;;9.30;99.90;;;;;;4968052;28;20019;-67
2021/04/14 09:21:45;;;;;;;20.13;10.65;;;8.60;99.90;;;;;;4964225;28;19946;-63
2021/04/14 09:24:37;;;;;;;20.15;10.95;;;8.60;99.90;;;;;;4932400;28;20106;-63
2021/04/14 09:27:06;;;;;;;17.98;10.25;;;8.40;99.90;;;;;;4966816;28;20168;-62
2021/04/14 09:29:48;;;;;;;16.58;11.18;;;8.50;99.90;;;;;;4958863;28;20509;-67
2021/04/14 09:32:15;;;;;;;18.55;11.20;;;8.60;99.90;;;;;;4963611;28;20035;-63
2021/04/14 09:34:46;;;;;;;19.30;11.07;;;8.50;99.90;;;;;;4961785;28;20027;-65
2021/04/14 09:37:18;;;;;;;17.33;10.48;;;8.40;99.90;;;;;;4932977;28;20030;-65
2021/04/14 09:39:51;;;;;;;19.08;9.93;;;8.20;99.90;;;;;;4961695;28;20035;-65
2021/04/14 09:42:22;;;;;;;21.48;11.60;;;8.40;99.90;;;;;;4963156;28;20017;-65
2021/04/14 09:44:51;;;;;;;18.67;11.00;;;8.70;99.90;;;;;;4966105;28;20031;-64
2021/04/14 09:47:29;;;;;;;18.75;11.13;;;9.00;99.90;;;;;;4963336;28;20054;-63
2021/04/14 09:49:57;;;;;;;21.50;10.93;;;9.00;99.90;;;;;;4962362;28;20022;-64
2021/04/14 09:52:28;;;;;;;27.65;11.82;;;8.70;99.90;;;;;;4967941;28;20139;-66
2021/04/14 09:55:07;;;;;;;18.40;10.52;;;8.70;99.90;;;;;;4970004;28;20023;-63
2021/04/14 09:57:38;;;;;;;18.33;10.68;;;9.00;99.90;;;;;;4971766;28;20034;-64
2021/04/14 10:00:06;;;;;;;14.77;9.32;;;9.40;99.90;;;;;;4972736;28;20023;-64
2021/04/14 10:02:36;;;;;;;15.45;10.55;;;9.10;99.50;;;;;;4963273;28;20031;-64
2021/04/14 10:05:03;;;;;;;14.88;9.75;;;9.00;99.90;;;;;;4964675;28;20053;-63
2021/04/14 10:07:32;;;;;;;19.10;10.55;;;9.10;99.90;;;;;;4958621;28;20031;-65
2021/04/14 10:10:12;;;;;;;14.45;9.93;;;8.90;99.00;;;;;;4969888;28;20076;-64
2021/04/14 10:12:38;;;;;;;21.13;9.82;;;8.90;98.50;;;;;;4951894;28;20023;-66
2021/04/14 10:15:06;;;;;;;18.23;9.95;;;9.10;98.30;;;;;;4969883;28;20050;-64
2021/04/14 10:17:33;;;;;;;16.90;10.43;;;9.30;98.50;;;;;;4967512;28;20121;-65
2021/04/14 10:20:15;;;;;;;17.88;9.32;;;9.60;98.70;;;;;;4951160;28;20018;-65
2021/04/14 10:22:47;;;;;;;14.10;9.07;;;9.80;97.80;;;;;;4968868;28;20512;-64
2021/04/14 10:25:17;;;;;;;;;;;10.20;97.30;;;;;;4968283;28;20374;-64
2021/04/14 10:27:44;;;;;;;15.50;8.93;;;10.20;94.30;;;;;;4967813;28;19914;-62
2021/04/14 10:30:16;;;;;;;16.40;9.63;;;10.10;93.20;;;;;;4940672;28;20034;-63
2021/04/14 10:32:42;;;;;;;;;;;9.20;91.30;;;;;;4958366;28;20673;-63
2021/04/14 10:35:15;;;;;;;14.13;8.43;;;9.30;93.90;;;;;;4959833;28;19907;-64
2021/04/14 10:37:47;;;;;;;15.98;8.45;;;8.90;93.90;;;;;;4968571;28;20480;-64
2021/04/14 10:40:20;;;;;;;12.40;7.80;;;9.10;94.10;;;;;;4968401;28;20226;-65
2021/04/14 10:42:49;;;;;;;13.75;8.38;;;8.90;91.30;;;;;;4967549;28;20137;-65
2021/04/14 10:45:18;;;;;;;16.83;8.27;;;8.70;91.80;;;;;;4971192;28;20127;-61
2021/04/14 10:47:45;;;;;;;16.48;8.45;;;8.50;90.80;;;;;;4972612;28;20295;-65
2021/04/14 10:50:30;;;;;;;14.10;6.82;;;8.30;91.90;;;;;;4965087;28;20048;-64
2021/04/14 10:53:00;;;;;;;11.23;6.82;;;8.90;93.30;;;;;;4981020;28;20037;-63
2021/04/14 10:55:28;;;;;;;9.98;6.75;;;9.70;89.50;;;;;;4980786;28;20033;-66
2021/04/14 10:58:03;;;;;;;10.43;6.55;;;10.10;84.00;;;;;;4970522;28;20062;-63
2021/04/14 11:00:33;;;;;;;11.18;6.60;;;10.30;78.00;;;;;;4969131;28;20046;-63
2021/04/14 11:03:24;;;;;;;10.73;6.22;;;10.30;76.10;;;;;;4969248;28;20019;-65
2021/04/14 11:05:53;;;;;;;14.38;5.93;;;10.40;73.10;;;;;;4968924;28;20136;-65
2021/04/14 11:08:19;;;;;;;13.35;6.45;;;10.70;75.50;;;;;;4952409;28;20023;-65
2021/04/14 11:10:46;;;;;;;7.70;5.05;;;10.20;67.90;;;;;;4971082;28;20106;-65
2021/04/14 11:13:25;;;;;;;7.50;4.75;;;10.20;72.90;;;;;;4971698;28;20134;-64
2021/04/14 11:15:52;;;;;;;6.43;4.28;;;9.70;69.60;;;;;;4972338;28;20037;-64
2021/04/14 11:18:29;;;;;;;9.85;4.15;;;9.30;72.20;;;;;;4950778;28;20444;-65
2021/04/14 11:21:13;;;;;;;8.18;4.03;;;9.40;75.30;;;;;;4958037;28;20133;-64
2021/04/14 11:23:41;;;;;;;7.72;4.22;;;9.70;76.30;;;;;;4961747;28;20047;-65
2021/04/14 11:26:18;;;;;;;10.50;4.35;;;9.30;75.50;;;;;;4948575;28;20355;-64
2021/04/14 11:28:48;;;;;;;5.18;3.55;;;9.30;78.10;;;;;;4964114;28;20031;-63
2021/04/14 11:31:43;;;;;;;5.38;3.55;;;9.10;75.10;;;;;;4960078;28;20023;-63
2021/04/14 11:34:15;;;;;;;4.70;3.15;;;8.90;76.90;;;;;;4968922;28;20050;-66
2021/04/14 11:36:52;;;;;;;7.13;4.18;;;8.80;75.80;;;;;;4999295;22;20040;-65
2021/04/14 11:39:18;;;;;;;13.07;3.95;;;8.70;76.60;;;;;;5065139;28;20044;-63
2021/04/14 11:41:47;;;;;;;9.55;4.47;;;8.70;77.60;;;;;;5066791;28;20490;-63
2021/04/14 11:44:38;;;;;;;13.75;4.80;;;8.90;89.80;;;;;;5061524;28;20021;-64
2021/04/14 11:47:05;;;;;;;12.88;4.95;;;7.90;98.70;;;;;;5067078;28;20028;-65
2021/04/14 11:49:36;;;;;;;7.78;4.75;;;7.60;99.90;;;;;;5066876;28;20048;-65
2021/04/14 11:52:15;;;;;;;9.05;5.22;;;7.50;99.90;;;;;;5064358;28;20441;-64
2021/04/14 11:54:42;;;;;;;10.48;4.95;;;7.50;99.90;;;;;;5049328;28;20034;-64
2021/04/14 11:57:30;;;;;;;13.63;5.15;;;7.40;99.90;;;;;;5050660;28;20024;-66
2021/04/14 12:00:26;;;;;;;8.80;4.50;;;7.30;99.90;;;;;;5068504;28;20016;-62
2021/04/14 12:03:01;;;;;;;10.68;5.00;;;7.50;99.90;;;;;;5068170;28;20031;-63
2021/04/14 12:05:26;;;;;;;12.13;6.15;;;7.50;99.90;;;;;;5068350;28;20077;-64
2021/04/14 12:07:52;;;;;;;17.25;5.47;;;7.30;99.90;;;;;;5067075;28;20028;-64
2021/04/14 12:10:18;;;;;;;8.63;4.57;;;7.40;99.90;;;;;;5068785;28;20118;-64
2021/04/14 12:12:43;;;;;;;14.40;4.18;;;7.40;99.90;;;;;;5060985;28;20032;-63
2021/04/14 12:15:10;;;;;;;9.50;4.68;;;7.50;99.90;;;;;;5068988;28;20024;-64
2021/04/14 12:17:36;;;;;;;10.52;4.53;;;7.40;99.90;;;;;;5068473;28;20029;-64
2021/04/14 12:20:03;;;;;;;10.90;4.25;;;7.30;99.90;;;;;;5052206;28;20051;-63
2021/04/14 12:22:29;;;;;;;7.70;4.07;;;7.50;99.90;;;;;;5067620;28;20031;-64
2021/04/14 12:24:55;;;;;;;10.55;4.22;;;7.40;99.90;;;;;;5067215;28;20016;-63
2021/04/14 12:27:21;;;;;;;7.10;4.40;;;7.30;99.90;;;;;;5067006;28;20046;-62
2021/04/14 12:29:47;;;;;;;10.20;4.95;;;7.20;99.90;;;;;;5067877;28;20024;-63
2021/04/14 12:32:12;;;;;;;14.45;4.65;;;7.20;99.90;;;;;;5066403;28;20046;-66
2021/04/14 12:34:38;;;;;;;9.88;4.13;;;7.30;99.90;;;;;;5066036;28;20092;-64
2021/04/14 12:37:03;;;;;;;5.65;3.33;;;7.50;99.90;;;;;;5065375;28;20031;-64
2021/04/14 12:39:29;;;;;;;6.55;3.25;;;7.70;99.90;;;;;;5066267;28;20118;-65
2021/04/14 12:41:55;;;;;;;7.15;3.20;;;7.70;99.90;;;;;;5066715;28;20517;-64
2021/04/14 12:44:22;;;;;;;4.35;2.95;;;7.60;99.90;;;;;;5055390;28;20009;-65
2021/04/14 12:46:48;;;;;;;6.10;3.13;;;7.70;99.90;;;;;;5066146;28;20017;-65
2021/04/14 12:49:16;;;;;;;5.25;2.70;;;7.80;99.90;;;;;;5062842;28;20393;-65
2021/04/14 12:51:50;;;;;;;4.75;2.85;;;8.00;99.70;;;;;;5059523;28;20467;-63
2021/04/14 12:54:18;;;;;;;4.95;2.42;;;8.00;99.90;;;;;;5065407;28;20024;-65
2021/04/14 12:56:50;;;;;;;5.97;2.50;;;8.10;99.80;;;;;;5066589;28;20047;-64
2021/04/14 12:59:19;;;;;;;6.70;2.10;;;8.10;99.00;;;;;;5068322;28;20032;-65
2021/04/14 13:01:47;;;;;;;3.83;2.25;;;8.20;98.10;;;;;;5061869;28;20029;-67
2021/04/14 13:04:21;;;;;;;2.30;1.80;;;8.60;97.20;;;;;;5070117;28;20417;-64